sensor_id;sensor_type;location;lat;lon;timestamp;P1;durP1;ratioP1;P2;durP2;ratioP2
75311;SDS011;63906;55.686;37.532;2023-03-12T00:02:36;7.28;;;4.43;;
75311;SDS011;63906;55.686;37.532;2023-03-12T00:07:37;9.50;;;4.90;;
75311;SDS011;63906;55.686;37.532;2023-03-12T00:12:38;6.78;;;3.88;;
75311;SDS011;63906;55.686;37.532;2023-03-12T00:17:39;9.85;;;5.53;;
75311;SDS011;63906;55.686;37.532;2023-03-12T00:22:39;6.13;;;3.70;;
75311;SDS011;63906;55.686;37.532;2023-03-12T00:27:40;8.38;;;4.60;;
75311;SDS011;63906;55.686;37.532;2023-03-12T00:32:41;5.50;;;2.10;;
75311;SDS011;63906;55.686;37.532;2023-03-12T00:37:42;1.80;;;0.82;;
75311;SDS011;63906;55.686;37.532;2023-03-12T00:42:42;3.60;;;2.23;;
75311;SDS011;63906;55.686;37.532;2023-03-12T00:47:43;4.83;;;3.10;;
75311;SDS011;63906;55.686;37.532;2023-03-12T00:52:43;6.53;;;4.60;;
75311;SDS011;63906;55.686;37.532;2023-03-12T00:57:44;4.38;;;2.95;;
75311;SDS011;63906;55.686;37.532;2023-03-12T01:02:44;6.23;;;3.47;;
75311;SDS011;63906;55.686;37.532;2023-03-12T01:07:45;4.80;;;3.45;;
75311;SDS011;63906;55.686;37.532;2023-03-12T01:12:45;4.43;;;2.78;;
75311;SDS011;63906;55.686;37.532;2023-03-12T01:17:46;11.68;;;5.35;;
75311;SDS011;63906;55.686;37.532;2023-03-12T01:22:47;6.30;;;3.83;;
75311;SDS011;63906;55.686;37.532;2023-03-12T01:27:48;7.65;;;4.45;;
75311;SDS011;63906;55.686;37.532;2023-03-12T01:32:50;21.37;;;10.30;;
75311;SDS011;63906;55.686;37.532;2023-03-12T01:37:51;12.77;;;6.45;;
75311;SDS011;63906;55.686;37.532;2023-03-12T01:42:52;14.95;;;7.10;;
75311;SDS011;63906;55.686;37.532;2023-03-12T01:47:54;18.88;;;7.93;;
75311;SDS011;63906;55.686;37.532;2023-03-12T01:52:54;12.23;;;6.47;;
75311;SDS011;63906;55.686;37.532;2023-03-12T01:57:55;20.30;;;10.13;;
75311;SDS011;63906;55.686;37.532;2023-03-12T02:02:59;33.08;;;14.98;;
75311;SDS011;63906;55.686;37.532;2023-03-12T02:08:03;16.10;;;6.50;;
75311;SDS011;63906;55.686;37.532;2023-03-12T02:13:04;9.50;;;5.13;;
75311;SDS011;63906;55.686;37.532;2023-03-12T02:18:06;18.13;;;8.63;;
75311;SDS011;63906;55.686;37.532;2023-03-12T02:23:09;19.20;;;9.07;;
75311;SDS011;63906;55.686;37.532;2023-03-12T02:28:17;32.70;;;14.88;;
75311;SDS011;63906;55.686;37.532;2023-03-12T02:33:20;17.35;;;10.40;;
75311;SDS011;63906;55.686;37.532;2023-03-12T02:43:30;26.95;;;12.20;;
75311;SDS011;63906;55.686;37.532;2023-03-12T02:48:31;21.23;;;10.93;;
75311;SDS011;63906;55.686;37.532;2023-03-12T02:53:32;18.08;;;9.43;;
75311;SDS011;63906;55.686;37.532;2023-03-12T02:58:32;25.80;;;12.85;;
75311;SDS011;63906;55.686;37.532;2023-03-12T03:03:33;23.50;;;13.18;;
75311;SDS011;63906;55.686;37.532;2023-03-12T03:08:33;16.60;;;8.73;;
75311;SDS011;63906;55.686;37.532;2023-03-12T03:13:34;10.02;;;5.85;;
75311;SDS011;63906;55.686;37.532;2023-03-12T03:18:34;10.75;;;5.95;;
75311;SDS011;63906;55.686;37.532;2023-03-12T03:23:35;17.23;;;7.63;;
75311;SDS011;63906;55.686;37.532;2023-03-12T03:28:36;15.15;;;7.45;;
75311;SDS011;63906;55.686;37.532;2023-03-12T03:33:38;17.73;;;8.38;;
75311;SDS011;63906;55.686;37.532;2023-03-12T03:38:39;13.73;;;6.05;;
75311;SDS011;63906;55.686;37.532;2023-03-12T03:43:40;9.00;;;5.15;;
75311;SDS011;63906;55.686;37.532;2023-03-12T03:48:41;7.85;;;3.05;;
75311;SDS011;63906;55.686;37.532;2023-03-12T03:53:42;11.95;;;6.45;;
75311;SDS011;63906;55.686;37.532;2023-03-12T03:58:42;16.80;;;7.55;;
75311;SDS011;63906;55.686;37.532;2023-03-12T04:03:43;14.57;;;7.15;;
75311;SDS011;63906;55.686;37.532;2023-03-12T04:08:44;20.30;;;8.90;;
75311;SDS011;63906;55.686;37.532;2023-03-12T04:13:45;16.65;;;8.20;;
75311;SDS011;63906;55.686;37.532;2023-03-12T04:18:46;18.77;;;10.45;;
75311;SDS011;63906;55.686;37.532;2023-03-12T04:23:47;10.73;;;4.87;;
75311;SDS011;63906;55.686;37.532;2023-03-12T04:28:47;15.47;;;7.80;;
75311;SDS011;63906;55.686;37.532;2023-03-12T04:33:47;14.10;;;6.67;;
75311;SDS011;63906;55.686;37.532;2023-03-12T04:38:48;11.87;;;5.77;;
75311;SDS011;63906;55.686;37.532;2023-03-12T04:43:48;12.20;;;6.80;;
75311;SDS011;63906;55.686;37.532;2023-03-12T04:48:49;12.02;;;6.10;;
75311;SDS011;63906;55.686;37.532;2023-03-12T04:53:50;20.70;;;10.15;;
75311;SDS011;63906;55.686;37.532;2023-03-12T04:58:51;8.45;;;4.20;;
75311;SDS011;63906;55.686;37.532;2023-03-12T05:03:52;15.80;;;7.28;;
75311;SDS011;63906;55.686;37.532;2023-03-12T05:08:53;18.08;;;9.15;;
75311;SDS011;63906;55.686;37.532;2023-03-12T05:13:54;13.30;;;6.68;;
75311;SDS011;63906;55.686;37.532;2023-03-12T05:18:54;13.05;;;7.15;;
75311;SDS011;63906;55.686;37.532;2023-03-12T05:23:55;10.90;;;5.30;;
75311;SDS011;63906;55.686;37.532;2023-03-12T05:28:56;6.97;;;3.20;;
75311;SDS011;63906;55.686;37.532;2023-03-12T05:33:57;6.00;;;3.53;;
75311;SDS011;63906;55.686;37.532;2023-03-12T05:38:58;12.40;;;6.20;;
75311;SDS011;63906;55.686;37.532;2023-03-12T05:43:59;8.63;;;3.90;;
75311;SDS011;63906;55.686;37.532;2023-03-12T05:48:59;11.55;;;6.45;;
75311;SDS011;63906;55.686;37.532;2023-03-12T05:54:00;10.60;;;5.05;;
75311;SDS011;63906;55.686;37.532;2023-03-12T05:59:00;5.97;;;3.57;;
75311;SDS011;63906;55.686;37.532;2023-03-12T06:04:01;18.33;;;9.70;;
75311;SDS011;63906;55.686;37.532;2023-03-12T06:09:02;9.55;;;5.00;;
75311;SDS011;63906;55.686;37.532;2023-03-12T06:14:03;16.45;;;7.75;;
75311;SDS011;63906;55.686;37.532;2023-03-12T06:19:04;23.13;;;11.07;;
75311;SDS011;63906;55.686;37.532;2023-03-12T06:24:06;12.43;;;5.80;;
75311;SDS011;63906;55.686;37.532;2023-03-12T06:29:07;21.77;;;12.55;;
75311;SDS011;63906;55.686;37.532;2023-03-12T06:34:08;21.58;;;11.55;;
75311;SDS011;63906;55.686;37.532;2023-03-12T06:39:09;15.90;;;7.57;;
75311;SDS011;63906;55.686;37.532;2023-03-12T06:44:09;16.77;;;7.75;;
75311;SDS011;63906;55.686;37.532;2023-03-12T06:49:10;20.10;;;11.35;;
75311;SDS011;63906;55.686;37.532;2023-03-12T06:54:11;10.80;;;5.13;;
75311;SDS011;63906;55.686;37.532;2023-03-12T06:59:11;19.52;;;9.88;;
75311;SDS011;63906;55.686;37.532;2023-03-12T07:04:11;20.05;;;10.43;;
75311;SDS011;63906;55.686;37.532;2023-03-12T07:09:13;22.05;;;11.02;;
75311;SDS011;63906;55.686;37.532;2023-03-12T07:14:13;21.20;;;10.07;;
75311;SDS011;63906;55.686;37.532;2023-03-12T07:19:14;14.00;;;7.32;;
75311;SDS011;63906;55.686;37.532;2023-03-12T07:24:14;24.55;;;12.50;;
75311;SDS011;63906;55.686;37.532;2023-03-12T07:29:15;15.23;;;7.32;;
75311;SDS011;63906;55.686;37.532;2023-03-12T07:34:15;16.00;;;8.32;;
75311;SDS011;63906;55.686;37.532;2023-03-12T07:39:16;17.55;;;9.05;;
75311;SDS011;63906;55.686;37.532;2023-03-12T07:44:16;24.23;;;11.38;;
75311;SDS011;63906;55.686;37.532;2023-03-12T07:49:17;14.55;;;6.93;;
75311;SDS011;63906;55.686;37.532;2023-03-12T07:54:18;22.70;;;11.57;;
75311;SDS011;63906;55.686;37.532;2023-03-12T07:59:18;9.63;;;4.30;;
75311;SDS011;63906;55.686;37.532;2023-03-12T08:04:19;13.77;;;7.85;;
75311;SDS011;63906;55.686;37.532;2023-03-12T08:09:19;8.20;;;4.35;;
75311;SDS011;63906;55.686;37.532;2023-03-12T08:14:20;11.77;;;6.63;;
75311;SDS011;63906;55.686;37.532;2023-03-12T08:19:20;11.10;;;6.95;;
75311;SDS011;63906;55.686;37.532;2023-03-12T08:24:22;10.13;;;5.10;;
75311;SDS011;63906;55.686;37.532;2023-03-12T08:29:22;8.60;;;4.47;;
75311;SDS011;63906;55.686;37.532;2023-03-12T08:34:23;10.27;;;4.88;;
75311;SDS011;63906;55.686;37.532;2023-03-12T08:39:23;9.80;;;4.70;;
75311;SDS011;63906;55.686;37.532;2023-03-12T08:44:24;8.52;;;5.32;;
75311;SDS011;63906;55.686;37.532;2023-03-12T08:49:25;8.23;;;4.43;;
75311;SDS011;63906;55.686;37.532;2023-03-12T08:54:26;8.18;;;4.18;;
75311;SDS011;63906;55.686;37.532;2023-03-12T08:59:26;6.60;;;3.50;;
75311;SDS011;63906;55.686;37.532;2023-03-12T09:04:27;6.32;;;3.88;;
75311;SDS011;63906;55.686;37.532;2023-03-12T09:09:27;8.80;;;4.63;;
75311;SDS011;63906;55.686;37.532;2023-03-12T09:14:28;6.50;;;3.70;;
75311;SDS011;63906;55.686;37.532;2023-03-12T09:19:28;7.10;;;3.58;;
75311;SDS011;63906;55.686;37.532;2023-03-12T09:24:29;7.93;;;4.97;;
75311;SDS011;63906;55.686;37.532;2023-03-12T09:29:30;7.68;;;3.60;;
75311;SDS011;63906;55.686;37.532;2023-03-12T09:34:31;6.07;;;3.60;;
75311;SDS011;63906;55.686;37.532;2023-03-12T09:39:32;7.97;;;4.20;;
75311;SDS011;63906;55.686;37.532;2023-03-12T09:44:36;7.63;;;4.50;;
75311;SDS011;63906;55.686;37.532;2023-03-12T09:49:44;6.85;;;3.88;;
75311;SDS011;63906;55.686;37.532;2023-03-12T09:55:11;7.38;;;3.58;;
75311;SDS011;63906;55.686;37.532;2023-03-12T10:00:21;5.97;;;3.53;;
75311;SDS011;63906;55.686;37.532;2023-03-12T10:26:49;4.00;;;3.13;;
75311;SDS011;63906;55.686;37.532;2023-03-12T10:42:39;5.95;;;3.03;;
75311;SDS011;63906;55.686;37.532;2023-03-12T10:47:40;1.47;;;1.17;;
75311;SDS011;63906;55.686;37.532;2023-03-12T10:52:50;4.40;;;2.88;;
75311;SDS011;63906;55.686;37.532;2023-03-12T10:57:52;4.25;;;2.92;;
75311;SDS011;63906;55.686;37.532;2023-03-12T11:08:12;3.60;;;2.38;;
75311;SDS011;63906;55.686;37.532;2023-03-12T11:13:22;4.57;;;3.50;;
75311;SDS011;63906;55.686;37.532;2023-03-12T11:23:37;3.80;;;3.03;;
75311;SDS011;63906;55.686;37.532;2023-03-12T11:28:44;3.85;;;2.38;;
75311;SDS011;63906;55.686;37.532;2023-03-12T11:33:48;3.33;;;2.00;;
75311;SDS011;63906;55.686;37.532;2023-03-12T12:00:02;0.98;;;0.43;;
75311;SDS011;63906;55.686;37.532;2023-03-12T12:26:05;0.47;;;0.32;;
75311;SDS011;63906;55.686;37.532;2023-03-12T12:36:33;0.50;;;0.20;;
75311;SDS011;63906;55.686;37.532;2023-03-12T12:41:36;0.70;;;0.17;;
75311;SDS011;63906;55.686;37.532;2023-03-12T12:46:58;0.40;;;0.22;;
75311;SDS011;63906;55.686;37.532;2023-03-12T12:52:04;0.08;;;0.08;;
75311;SDS011;63906;55.686;37.532;2023-03-12T12:57:13;0.10;;;0.05;;
75311;SDS011;63906;55.686;37.532;2023-03-12T13:02:20;0.10;;;0.10;;
75311;SDS011;63906;55.686;37.532;2023-03-12T13:07:29;0.25;;;0.10;;
75311;SDS011;63906;55.686;37.532;2023-03-12T13:12:46;0.35;;;0.28;;
75311;SDS011;63906;55.686;37.532;2023-03-12T13:33:38;1.33;;;0.43;;
75311;SDS011;63906;55.686;37.532;2023-03-12T13:39:00;2.17;;;1.00;;
75311;SDS011;63906;55.686;37.532;2023-03-12T13:49:22;0.80;;;0.47;;
75311;SDS011;63906;55.686;37.532;2023-03-12T13:54:25;0.50;;;0.30;;
75311;SDS011;63906;55.686;37.532;2023-03-12T13:59:30;1.27;;;0.40;;
75311;SDS011;63906;55.686;37.532;2023-03-12T14:04:32;1.63;;;1.13;;
75311;SDS011;63906;55.686;37.532;2023-03-12T14:20:18;1.67;;;1.02;;
75311;SDS011;63906;55.686;37.532;2023-03-12T14:30:40;0.50;;;0.40;;
75311;SDS011;63906;55.686;37.532;2023-03-12T14:35:51;1.00;;;0.70;;
75311;SDS011;63906;55.686;37.532;2023-03-12T14:46:12;0.70;;;0.47;;
75311;SDS011;63906;55.686;37.532;2023-03-12T14:51:25;1.63;;;0.80;;
75311;SDS011;63906;55.686;37.532;2023-03-12T14:56:27;2.58;;;1.65;;
75311;SDS011;63906;55.686;37.532;2023-03-12T15:01:32;2.03;;;1.60;;
75311;SDS011;63906;55.686;37.532;2023-03-12T15:06:45;0.88;;;0.60;;
75311;SDS011;63906;55.686;37.532;2023-03-12T15:11:52;3.65;;;1.65;;
75311;SDS011;63906;55.686;37.532;2023-03-12T15:16:58;3.20;;;2.05;;
75311;SDS011;63906;55.686;37.532;2023-03-12T15:22:00;2.83;;;1.60;;
75311;SDS011;63906;55.686;37.532;2023-03-12T15:37:34;2.97;;;1.73;;
75311;SDS011;63906;55.686;37.532;2023-03-12T15:42:40;2.83;;;1.77;;
75311;SDS011;63906;55.686;37.532;2023-03-12T15:47:43;2.28;;;1.67;;
75311;SDS011;63906;55.686;37.532;2023-03-12T15:52:58;3.03;;;2.20;;
75311;SDS011;63906;55.686;37.532;2023-03-12T16:03:25;2.50;;;1.67;;
75311;SDS011;63906;55.686;37.532;2023-03-12T16:08:37;0.73;;;0.70;;
75311;SDS011;63906;55.686;37.532;2023-03-12T16:13:43;1.90;;;1.25;;
75311;SDS011;63906;55.686;37.532;2023-03-12T16:18:46;2.30;;;1.25;;
75311;SDS011;63906;55.686;37.532;2023-03-12T16:23:47;0.60;;;0.40;;
75311;SDS011;63906;55.686;37.532;2023-03-12T16:28:47;3.78;;;2.00;;
75311;SDS011;63906;55.686;37.532;2023-03-12T16:33:48;3.23;;;1.57;;
75311;SDS011;63906;55.686;37.532;2023-03-12T16:38:48;3.30;;;1.50;;
75311;SDS011;63906;55.686;37.532;2023-03-12T16:43:49;2.80;;;1.77;;
75311;SDS011;63906;55.686;37.532;2023-03-12T16:48:52;2.08;;;1.10;;
75311;SDS011;63906;55.686;37.532;2023-03-12T16:53:53;1.48;;;1.25;;
75311;SDS011;63906;55.686;37.532;2023-03-12T16:58:55;3.13;;;1.63;;
75311;SDS011;63906;55.686;37.532;2023-03-12T17:04:01;3.33;;;2.63;;
75311;SDS011;63906;55.686;37.532;2023-03-12T17:09:03;2.92;;;1.98;;
75311;SDS011;63906;55.686;37.532;2023-03-12T17:14:14;3.15;;;1.98;;
75311;SDS011;63906;55.686;37.532;2023-03-12T17:19:18;2.70;;;1.30;;
75311;SDS011;63906;55.686;37.532;2023-03-12T17:24:18;2.20;;;1.20;;
75311;SDS011;63906;55.686;37.532;2023-03-12T17:29:19;1.23;;;1.10;;
75311;SDS011;63906;55.686;37.532;2023-03-12T17:34:19;2.47;;;1.88;;
75311;SDS011;63906;55.686;37.532;2023-03-12T17:39:20;1.83;;;1.55;;
75311;SDS011;63906;55.686;37.532;2023-03-12T17:44:20;1.95;;;1.48;;
75311;SDS011;63906;55.686;37.532;2023-03-12T17:49:21;1.67;;;1.10;;
75311;SDS011;63906;55.686;37.532;2023-03-12T17:54:21;2.42;;;1.25;;
75311;SDS011;63906;55.686;37.532;2023-03-12T17:59:22;3.60;;;1.70;;
75311;SDS011;63906;55.686;37.532;2023-03-12T18:04:22;0.88;;;0.52;;
75311;SDS011;63906;55.686;37.532;2023-03-12T18:09:23;3.22;;;1.52;;
75311;SDS011;63906;55.686;37.532;2023-03-12T18:14:24;1.83;;;1.47;;
75311;SDS011;63906;55.686;37.532;2023-03-12T18:19:24;2.97;;;1.75;;
75311;SDS011;63906;55.686;37.532;2023-03-12T18:24:26;1.85;;;1.02;;
75311;SDS011;63906;55.686;37.532;2023-03-12T18:29:26;2.95;;;1.00;;
75311;SDS011;63906;55.686;37.532;2023-03-12T18:34:27;2.78;;;1.30;;
75311;SDS011;63906;55.686;37.532;2023-03-12T18:39:27;1.15;;;0.80;;
75311;SDS011;63906;55.686;37.532;2023-03-12T18:44:28;1.05;;;0.68;;
75311;SDS011;63906;55.686;37.532;2023-03-12T18:49:31;1.50;;;1.17;;
75311;SDS011;63906;55.686;37.532;2023-03-12T18:54:32;1.10;;;0.50;;
75311;SDS011;63906;55.686;37.532;2023-03-12T18:59:32;1.00;;;0.50;;
75311;SDS011;63906;55.686;37.532;2023-03-12T19:04:33;1.10;;;0.52;;
75311;SDS011;63906;55.686;37.532;2023-03-12T19:09:34;0.82;;;0.50;;
75311;SDS011;63906;55.686;37.532;2023-03-12T19:14:34;1.58;;;0.57;;
75311;SDS011;63906;55.686;37.532;2023-03-12T19:19:35;0.93;;;0.60;;
75311;SDS011;63906;55.686;37.532;2023-03-12T19:24:35;1.00;;;0.80;;
75311;SDS011;63906;55.686;37.532;2023-03-12T19:29:36;1.23;;;0.77;;
75311;SDS011;63906;55.686;37.532;2023-03-12T19:34:36;1.30;;;0.80;;
75311;SDS011;63906;55.686;37.532;2023-03-12T19:39:37;0.20;;;0.20;;
75311;SDS011;63906;55.686;37.532;2023-03-12T19:44:37;2.00;;;0.77;;
75311;SDS011;63906;55.686;37.532;2023-03-12T19:49:39;1.10;;;0.73;;
75311;SDS011;63906;55.686;37.532;2023-03-12T19:54:39;1.07;;;0.40;;
75311;SDS011;63906;55.686;37.532;2023-03-12T19:59:41;0.95;;;0.80;;
75311;SDS011;63906;55.686;37.532;2023-03-12T20:04:42;0.40;;;0.40;;
75311;SDS011;63906;55.686;37.532;2023-03-12T20:09:42;1.10;;;0.73;;
75311;SDS011;63906;55.686;37.532;2023-03-12T20:14:43;1.00;;;0.60;;
75311;SDS011;63906;55.686;37.532;2023-03-12T20:19:43;0.82;;;0.47;;
75311;SDS011;63906;55.686;37.532;2023-03-12T20:24:44;0.88;;;0.55;;
75311;SDS011;63906;55.686;37.532;2023-03-12T20:29:44;0.50;;;0.20;;
75311;SDS011;63906;55.686;37.532;2023-03-12T20:34:46;0.52;;;0.50;;
75311;SDS011;63906;55.686;37.532;2023-03-12T20:39:46;1.13;;;0.60;;
75311;SDS011;63906;55.686;37.532;2023-03-12T20:44:47;0.50;;;0.20;;
75311;SDS011;63906;55.686;37.532;2023-03-12T20:49:47;1.73;;;1.00;;
75311;SDS011;63906;55.686;37.532;2023-03-12T20:54:48;0.97;;;0.67;;
75311;SDS011;63906;55.686;37.532;2023-03-12T20:59:48;1.03;;;0.73;;
75311;SDS011;63906;55.686;37.532;2023-03-12T21:04:49;0.85;;;0.30;;
75311;SDS011;63906;55.686;37.532;2023-03-12T21:09:51;0.80;;;0.55;;
75311;SDS011;63906;55.686;37.532;2023-03-12T21:14:52;1.17;;;0.77;;
75311;SDS011;63906;55.686;37.532;2023-03-12T21:19:52;0.30;;;0.30;;
75311;SDS011;63906;55.686;37.532;2023-03-12T21:24:53;1.17;;;0.60;;
75311;SDS011;63906;55.686;37.532;2023-03-12T21:29:53;0.93;;;0.37;;
75311;SDS011;63906;55.686;37.532;2023-03-12T21:34:54;0.30;;;0.10;;
75311;SDS011;63906;55.686;37.532;2023-03-12T21:39:54;1.50;;;0.50;;
75311;SDS011;63906;55.686;37.532;2023-03-12T21:45:00;0.20;;;0.20;;
75311;SDS011;63906;55.686;37.532;2023-03-12T21:50:00;0.73;;;0.50;;
75311;SDS011;63906;55.686;37.532;2023-03-12T21:55:01;0.70;;;0.70;;
75311;SDS011;63906;55.686;37.532;2023-03-12T22:00:02;5.13;;;0.97;;
75311;SDS011;63906;55.686;37.532;2023-03-12T22:05:03;0.57;;;0.45;;
75311;SDS011;63906;55.686;37.532;2023-03-12T22:10:04;0.40;;;0.17;;
75311;SDS011;63906;55.686;37.532;2023-03-12T22:15:06;1.00;;;0.60;;
75311;SDS011;63906;55.686;37.532;2023-03-12T22:20:08;0.00;;;0.00;;
75311;SDS011;63906;55.686;37.532;2023-03-12T22:25:09;1.20;;;0.55;;
75311;SDS011;63906;55.686;37.532;2023-03-12T22:30:09;0.35;;;0.17;;
75311;SDS011;63906;55.686;37.532;2023-03-12T22:35:12;0.28;;;0.20;;
75311;SDS011;63906;55.686;37.532;2023-03-12T22:40:13;1.35;;;0.50;;
75311;SDS011;63906;55.686;37.532;2023-03-12T22:45:13;0.30;;;0.30;;
75311;SDS011;63906;55.686;37.532;2023-03-12T22:50:14;0.47;;;0.20;;
75311;SDS011;63906;55.686;37.532;2023-03-12T22:55:15;0.93;;;0.30;;
75311;SDS011;63906;55.686;37.532;2023-03-12T23:00:17;0.70;;;0.40;;
75311;SDS011;63906;55.686;37.532;2023-03-12T23:05:21;1.52;;;0.90;;
75311;SDS011;63906;55.686;37.532;2023-03-12T23:10:22;1.30;;;0.43;;
75311;SDS011;63906;55.686;37.532;2023-03-12T23:15:22;0.55;;;0.32;;
75311;SDS011;63906;55.686;37.532;2023-03-12T23:20:23;0.25;;;0.10;;
75311;SDS011;63906;55.686;37.532;2023-03-12T23:25:24;1.33;;;0.60;;
75311;SDS011;63906;55.686;37.532;2023-03-12T23:30:24;0.65;;;0.30;;
75311;SDS011;63906;55.686;37.532;2023-03-12T23:35:25;1.42;;;0.63;;
75311;SDS011;63906;55.686;37.532;2023-03-12T23:40:26;1.15;;;0.57;;
75311;SDS011;63906;55.686;37.532;2023-03-12T23:45:26;1.80;;;0.63;;
75311;SDS011;63906;55.686;37.532;2023-03-12T23:50:27;0.80;;;0.47;;
75311;SDS011;63906;55.686;37.532;2023-03-12T23:55:28;0.25;;;0.20;;
